Time;durP1;ratioP1;P1;durP2;ratioP2;P2;SDS_P1;SDS_P2;PMS_P1;PMS_P2;Temp;Humidity;BMP_temperature;BMP_pressure;BME280_temperature;BME280_humidity;BME280_pressure;Samples;Min_cycle;Max_cycle;Signal;HPM_P1;HPM_P2
2023/05/23 00:01:23;;;;;;;;;;;;;;;;;;7367645;19;879;-60
2023/05/23 00:03:54;;;;;;;;;;;;;;;;;;7367516;19;1857;-59
2023/05/23 00:06:22;;;;;;;;;;;;;;;;;;7368270;19;715;-62
2023/05/23 00:08:50;;;;;;;;;;;;;;;;;;7366156;19;1738;-61
2023/05/23 00:11:19;;;;;;;;;;;;;;;;;;7372699;19;873;-60
2023/05/23 00:13:47;;;;;;;;;;;;;;;;;;7368393;19;798;-62
2023/05/23 00:16:16;;;;;;;;;;;;;;;;;;7368194;19;806;-61
2023/05/23 00:18:44;;;;;;;;;;;;;;;;;;7363990;19;1300;-62
2023/05/23 00:21:12;;;;;;;;;;;;;;;;;;7366628;19;795;-61
2023/05/23 00:23:41;;;;;;;;;;;;;;;;;;7367286;19;1877;-62
2023/05/23 00:26:09;;;;;;;;;;;;;;;;;;7367398;19;1016;-61
2023/05/23 00:28:37;;;;;;;;;;;;;;;;;;7368999;19;1606;-59
2023/05/23 00:31:06;;;;;;;;;;;;;;;;;;7366073;19;926;-62
2023/05/23 00:33:35;;;;;;;;;;;;;;;;;;7367464;19;1380;-61
2023/05/23 00:36:03;;;;;;;;;;;;;;;;;;7367965;19;842;-61
2023/05/23 00:38:31;;;;;;;;;;;;;;;;;;7363813;19;1270;-62
2023/05/23 00:41:00;;;;;;;;;;;;;;;;;;7367032;19;753;-62
2023/05/23 00:43:28;;;;;;;;;;;;;;;;;;7366070;19;1012;-61
2023/05/23 00:45:56;;;;;;;;;;;;;;;;;;7364440;19;1837;-60
2023/05/23 00:48:24;;;;;;;;;;;;;;;;;;7363218;19;1286;-60
2023/05/23 00:50:52;;;;;;;;;;;;;;;;;;7365789;19;842;-59
2023/05/23 00:53:20;;;;;;;;;;;;;;;;;;7367477;19;803;-59
2023/05/23 00:55:48;;;;;;;;;;;;;;;;;;7364956;19;862;-61
2023/05/23 00:58:17;;;;;;;;;;;;;;;;;;7363655;19;1287;-62
2023/05/23 01:00:46;;;;;;;;;;;;;;;;;;7367485;19;963;-62
2023/05/23 01:03:17;;;;;;;;;;;;;;;;;;7365268;19;817;-58
2023/05/23 01:05:45;;;;;;;;;;;;;;;;;;7364020;19;1857;-63
2023/05/23 01:08:14;;;;;;;;;;;;;;;;;;7361568;19;1271;-62
2023/05/23 01:10:42;;;;;;;;;;;;;;;;;;7367708;19;1995;-62
2023/05/23 01:13:10;;;;;;;;;;;;;;;;;;7367515;19;2023;-61
2023/05/23 01:15:39;;;;;;;;;;;;;;;;;;7369398;19;1890;-60
2023/05/23 01:18:07;;;;;;;;;;;;;;;;;;7364942;19;1765;-55
2023/05/23 01:20:35;;;;;;;;;;;;;;;;;;7367640;19;2181;-58
2023/05/23 01:23:03;;;;;;;;;;;;;;;;;;7369515;19;1839;-58
2023/05/23 01:25:31;;;;;;;;;;;;;;;;;;7366127;19;1855;-59
2023/05/23 01:28:00;;;;;;;;;;;;;;;;;;7367334;19;1711;-55
2023/05/23 01:30:28;;;;;;;;;;;;;;;;;;7369432;19;1484;-58
2023/05/23 01:32:56;;;;;;;;;;;;;;;;;;7367582;19;1651;-58
2023/05/23 01:35:24;;;;;;;;;;;;;;;;;;7367043;19;1089;-57
2023/05/23 01:37:52;;;;;;;;;;;;;;;;;;7361989;19;1248;-57
2023/05/23 01:40:20;;;;;;;;;;;;;;;;;;7365031;19;803;-58
2023/05/23 01:42:49;;;;;;;;;;;;;;;;;;7366460;19;882;-59
2023/05/23 01:45:17;;;;;;;;;;;;;;;;;;7364138;19;1853;-56
2023/05/23 01:47:45;;;;;;;;;;;;;;;;;;7363453;19;1278;-62
2023/05/23 01:50:13;;;;;;;;;;;;;;;;;;7363841;19;808;-62
2023/05/23 01:52:41;;;;;;;;;;;;;;;;;;7367003;19;944;-62
2023/05/23 01:55:10;;;;;;;;;;;;;;;;;;7365011;19;818;-62
2023/05/23 01:57:39;;;;;;;;;;;;;;;;;;7362252;19;1363;-62
2023/05/23 02:00:09;;;;;;;;;;;;;;;;;;7369648;19;866;-62
2023/05/23 02:02:43;;;;;;;;;;;;;;;;;;7371496;19;865;-62
2023/05/23 02:05:11;;;;;;;;;;;;;;;;;;7369079;19;1854;-62
2023/05/23 02:07:40;;;;;;;;;;;;;;;;;;7368408;19;1349;-64
2023/05/23 02:10:08;;;;;;;;;;;;;;;;;;7375185;19;1129;-62
2023/05/23 02:12:36;;;;;;;;;;;;;;;;;;7369091;19;713;-61
2023/05/23 02:15:05;;;;;;;;;;;;;;;;;;7369634;19;813;-59
2023/05/23 02:17:33;;;;;;;;;;;;;;;;;;7368321;19;1356;-62
2023/05/23 02:20:01;;;;;;;;;;;;;;;;;;7369360;19;845;-62
2023/05/23 02:22:29;;;;;;;;;;;;;;;;;;7373127;19;1645;-60
2023/05/23 02:24:57;;;;;;;;;;;;;;;;;;7369918;19;1845;-61
2023/05/23 02:27:25;;;;;;;;;;;;;;;;;;7372545;19;1317;-63
2023/05/23 02:29:53;;;;;;;;;;;;;;;;;;7369991;19;1982;-62
2023/05/23 02:32:21;;;;;;;;;;;;;;;;;;7371044;19;1628;-63
2023/05/23 02:34:50;;;;;;;;;;;;;;;;;;7374902;19;1606;-63
2023/05/23 02:37:18;;;;;;;;;;;;;;;;;;7370302;19;1642;-64
2023/05/23 02:39:46;;;;;;;;;;;;;;;;;;7369308;19;803;-62
2023/05/23 02:42:15;;;;;;;;;;;;;;;;;;7371279;19;857;-63
2023/05/23 02:44:43;;;;;;;;;;;;;;;;;;7370233;19;1853;-63
2023/05/23 02:47:11;;;;;;;;;;;;;;;;;;7368835;19;1286;-62
2023/05/23 02:49:39;;;;;;;;;;;;;;;;;;7371245;19;1825;-62
2023/05/23 02:52:08;;;;;;;;;;;;;;;;;;7368666;19;745;-63
2023/05/23 02:54:36;;;;;;;;;;;;;;;;;;7368422;19;778;-63
2023/05/23 02:57:05;;;;;;;;;;;;;;;;;;7367973;19;1281;-61
2023/05/23 02:59:36;;;;;;;;;;;;;;;;;;7368720;19;1066;-59
2023/05/23 03:02:04;;;;;;;;;;;;;;;;;;7368468;19;810;-58
2023/05/23 03:04:32;;;;;;;;;;;;;;;;;;7367544;19;1839;-61
2023/05/23 03:07:02;;;;;;;;;;;;;;;;;;7367825;19;1279;-59
2023/05/23 03:09:30;;;;;;;;;;;;;;;;;;7367317;19;909;-62
2023/05/23 03:11:59;;;;;;;;;;;;;;;;;;7368678;19;876;-63
2023/05/23 03:14:27;;;;;;;;;;;;;;;;;;7368502;19;777;-64
2023/05/23 03:16:55;;;;;;;;;;;;;;;;;;7369431;19;1314;-62
2023/05/23 03:19:23;;;;;;;;;;;;;;;;;;7369082;19;810;-62
2023/05/23 03:21:52;;;;;;;;;;;;;;;;;;7367575;19;802;-62
2023/05/23 03:24:20;;;;;;;;;;;;;;;;;;7367737;19;875;-62
2023/05/23 03:26:48;;;;;;;;;;;;;;;;;;7368124;19;1857;-61
2023/05/23 03:29:16;;;;;;;;;;;;;;;;;;7366842;19;766;-61
2023/05/23 03:31:45;;;;;;;;;;;;;;;;;;7369024;19;922;-61
2023/05/23 03:34:13;;;;;;;;;;;;;;;;;;7368838;19;1914;-63
2023/05/23 03:36:41;;;;;;;;;;;;;;;;;;7370061;19;2082;-61
2023/05/23 03:39:09;;;;;;;;;;;;;;;;;;7369230;19;1855;-59
2023/05/23 03:41:37;;;;;;;;;;;;;;;;;;7370286;19;2117;-61
2023/05/23 03:44:06;;;;;;;;;;;;;;;;;;7366884;19;787;-63
2023/05/23 03:46:34;;;;;;;;;;;;;;;;;;7367977;19;1891;-58
2023/05/23 03:49:03;;;;;;;;;;;;;;;;;;7363109;19;1314;-58
2023/05/23 03:51:31;;;;;;;;;;;;;;;;;;7370980;19;1007;-63
2023/05/23 03:54:00;;;;;;;;;;;;;;;;;;7366796;19;776;-61
2023/05/23 03:56:28;;;;;;;;;;;;;;;;;;7366846;19;806;-61
2023/05/23 03:58:56;;;;;;;;;;;;;;;;;;7367234;19;1677;-61
2023/05/23 04:01:24;;;;;;;;;;;;;;;;;;7367016;19;802;-62
2023/05/23 04:03:52;;;;;;;;;;;;;;;;;;7367279;19;846;-60
2023/05/23 04:06:21;;;;;;;;;;;;;;;;;;7364304;19;1854;-62
2023/05/23 04:08:49;;;;;;;;;;;;;;;;;;7367111;19;1287;-60
2023/05/23 04:11:17;;;;;;;;;;;;;;;;;;7367951;19;796;-60
2023/05/23 04:13:46;;;;;;;;;;;;;;;;;;7366376;19;741;-58
2023/05/23 04:16:15;;;;;;;;;;;;;;;;;;7366957;19;1616;-63
2023/05/23 04:18:45;;;;;;;;;;;;;;;;;;7363079;19;1248;-62
2023/05/23 04:21:14;;;;;;;;;;;;;;;;;;7364086;19;829;-59
2023/05/23 04:23:51;;;;;;;;;;;;;;;;;;7367768;19;785;-60
2023/05/23 04:26:20;;;;;;;;;;;;;;;;;;7367969;19;1862;-60
2023/05/23 04:28:53;;;;;;;;;;;;;;;;;;7362136;19;1306;-62
2023/05/23 04:31:21;;;;;;;;;;;;;;;;;;7366014;19;835;-62
2023/05/23 04:33:50;;;;;;;;;;;;;;;;;;7365026;19;807;-63
2023/05/23 04:36:22;;;;;;;;;;;;;;;;;;7370156;19;1818;-62
2023/05/23 04:38:54;;;;;;;;;;;;;;;;;;7362575;19;1336;-63
2023/05/23 04:41:23;;;;;;;;;;;;;;;;;;7366762;19;1954;-61
2023/05/23 04:44:00;;;;;;;;;;;;;;;;;;7366721;19;2163;-60
2023/05/23 04:46:33;;;;;;;;;;;;;;;;;;7367084;19;1866;-60
2023/05/23 04:49:15;;;;;;;;;;;;;;;;;;7364716;19;757;-63
2023/05/23 04:51:43;;;;;;;;;;;;;;;;;;7368601;19;1842;-61
2023/05/23 04:54:25;;;;;;;;;;;;;;;;;;7365552;19;749;-59
2023/05/23 04:56:55;;;;;;;;;;;;;;;;;;7364242;19;1301;-60
2023/05/23 04:59:24;;;;;;;;;;;;;;;;;;7366063;19;984;-62
2023/05/23 05:01:52;;;;;;;;;;;;;;;;;;7364860;19;776;-61
2023/05/23 05:04:21;;;;;;;;;;;;;;;;;;7369195;19;1995;-61
2023/05/23 05:06:51;;;;;;;;;;;;;;;;;;7363076;19;1867;-57
2023/05/23 05:09:20;;;;;;;;;;;;;;;;;;7364857;19;840;-56
2023/05/23 05:11:49;;;;;;;;;;;;;;;;;;7364568;19;824;-59
2023/05/23 05:14:17;;;;;;;;;;;;;;;;;;7365180;19;795;-59
2023/05/23 05:16:46;;;;;;;;;;;;;;;;;;7367481;19;1334;-58
2023/05/23 05:19:14;;;;;;;;;;;;;;;;;;7363686;19;794;-62
2023/05/23 05:21:42;;;;;;;;;;;;;;;;;;7364586;19;783;-59
2023/05/23 05:24:11;;;;;;;;;;;;;;;;;;7364494;19;819;-62
2023/05/23 05:26:39;;;;;;;;;;;;;;;;;;7363253;19;1849;-55
2023/05/23 05:29:08;;;;;;;;;;;;;;;;;;7367856;19;1726;-59
2023/05/23 05:31:37;;;;;;;;;;;;;;;;;;7363832;19;815;-59
2023/05/23 05:34:05;;;;;;;;;;;;;;;;;;7364290;19;924;-58
2023/05/23 05:36:34;;;;;;;;;;;;;;;;;;7363686;19;878;-62
2023/05/23 05:39:03;;;;;;;;;;;;;;;;;;7362721;19;1971;-64
2023/05/23 05:41:31;;;;;;;;;;;;;;;;;;7364593;19;1973;-63
2023/05/23 05:43:59;;;;;;;;;;;;;;;;;;7367746;19;1639;-63
2023/05/23 05:46:27;;;;;;;;;;;;;;;;;;7362760;19;1849;-60
2023/05/23 05:48:55;;;;;;;;;;;;;;;;;;7359899;19;2007;-60
2023/05/23 05:51:24;;;;;;;;;;;;;;;;;;7366690;19;1473;-61
2023/05/23 05:53:52;;;;;;;;;;;;;;;;;;7366714;19;1917;-62
2023/05/23 05:56:21;;;;;;;;;;;;;;;;;;7366371;19;1878;-61
2023/05/23 05:58:49;;;;;;;;;;;;;;;;;;7360737;19;1929;-63
2023/05/23 06:01:18;;;;;;;;;;;;;;;;;;7363851;19;1886;-62
2023/05/23 06:03:46;;;;;;;;;;;;;;;;;;7366577;19;1484;-61
2023/05/23 06:06:14;;;;;;;;;;;;;;;;;;7361508;19;2234;-60
2023/05/23 06:08:42;;;;;;;;;;;;;;;;;;7360942;19;1278;-61
2023/05/23 06:11:14;;;;;;;;;;;;;;;;;;7363119;19;871;-64
2023/05/23 06:13:42;;;;;;;;;;;;;;;;;;7362700;19;797;-63
2023/05/23 06:16:10;;;;;;;;;;;;;;;;;;7362304;19;834;-63
2023/05/23 06:18:38;;;;;;;;;;;;;;;;;;7359747;19;1339;-63
2023/05/23 06:21:07;;;;;;;;;;;;;;;;;;7361811;19;793;-63
2023/05/23 06:23:36;;;;;;;;;;;;;;;;;;7362166;19;826;-63
2023/05/23 06:26:06;;;;;;;;;;;;;;;;;;7361743;19;1842;-61
2023/05/23 06:28:36;;;;;;;;;;;;;;;;;;7359426;19;1332;-62
2023/05/23 06:31:04;;;;;;;;;;;;;;;;;;7363617;19;816;-62
2023/05/23 06:33:32;;;;;;;;;;;;;;;;;;7361980;19;833;-59
2023/05/23 06:36:00;;;;;;;;;;;;;;;;;;7361942;19;847;-62
2023/05/23 06:38:28;;;;;;;;;;;;;;;;;;7360163;19;1270;-62
2023/05/23 06:40:57;;;;;;;;;;;;;;;;;;7362711;19;805;-64
2023/05/23 06:43:25;;;;;;;;;;;;;;;;;;7361846;19;821;-62
2023/05/23 06:45:54;;;;;;;;;;;;;;;;;;7366701;19;1838;-62
2023/05/23 06:48:22;;;;;;;;;;;;;;;;;;7365653;19;1298;-63
2023/05/23 06:50:50;;;;;;;;;;;;;;;;;;7369450;19;871;-62
2023/05/23 06:53:19;;;;;;;;;;;;;;;;;;7368863;19;799;-62
2023/05/23 06:55:49;;;;;;;;;;;;;;;;;;7368748;19;761;-63
2023/05/23 06:58:20;;;;;;;;;;;;;;;;;;7367506;19;1367;-60
2023/05/23 07:00:48;;;;;;;;;;;;;;;;;;7369843;19;825;-62
2023/05/23 07:03:24;;;;;;;;;;;;;;;;;;7368373;19;765;-61
2023/05/23 07:05:53;;;;;;;;;;;;;;;;;;7367572;19;1839;-63
2023/05/23 07:08:23;;;;;;;;;;;;;;;;;;7365593;19;1388;-64
2023/05/23 07:11:01;;;;;;;;;;;;;;;;;;7367655;19;779;-62
2023/05/23 07:13:37;;;;;;;;;;;;;;;;;;7368019;19;856;-63
2023/05/23 07:16:06;;;;;;;;;;;;;;;;;;7367734;19;806;-63
2023/05/23 07:18:37;;;;;;;;;;;;;;;;;;7364560;19;1332;-62
2023/05/23 07:21:05;;;;;;;;;;;;;;;;;;7368386;19;871;-63
2023/05/23 07:23:33;;;;;;;;;;;;;;;;;;7368857;19;845;-63
2023/05/23 07:26:01;;;;;;;;;;;;;;;;;;7367324;19;1843;-62
2023/05/23 07:28:31;;;;;;;;;;;;;;;;;;7365383;19;1360;-61
2023/05/23 07:31:00;;;;;;;;;;;;;;;;;;7367829;19;839;-62
2023/05/23 07:33:28;;;;;;;;;;;;;;;;;;7367544;19;852;-61
2023/05/23 07:36:01;;;;;;;;;;;;;;;;;;7367986;19;726;-63
2023/05/23 07:38:29;;;;;;;;;;;;;;;;;;7366792;19;1344;-63
2023/05/23 07:40:57;;;;;;;;;;;;;;;;;;7368076;19;778;-62
2023/05/23 07:43:25;;;;;;;;;;;;;;;;;;7367370;19;799;-63
2023/05/23 07:45:53;;;;;;;;;;;;;;;;;;7368302;19;1853;-60
2023/05/23 07:48:21;;;;;;;;;;;;;;;;;;7364861;19;1345;-60
2023/05/23 07:50:53;;;;;;;;;;;;;;;;;;7367016;19;864;-59
2023/05/23 07:53:22;;;;;;;;;;;;;;;;;;7368442;19;702;-61
2023/05/23 07:55:50;;;;;;;;;;;;;;;;;;7366167;19;780;-62
2023/05/23 07:58:18;;;;;;;;;;;;;;;;;;7363046;19;1278;-63
2023/05/23 08:00:49;;;;;;;;;;;;;;;;;;7366485;19;1538;-63
2023/05/23 08:03:34;;;;;;;;;;;;;;;;;;7366490;19;1358;-62
2023/05/23 08:06:08;;;;;;;;;;;;;;;;;;7366437;19;1853;-62
2023/05/23 08:08:36;;;;;;;;;;;;;;;;;;7364374;19;1267;-62
2023/05/23 08:11:04;;;;;;;;;;;;;;;;;;7369294;19;808;-61
2023/05/23 08:13:40;;;;;;;;;;;;;;;;;;7367126;19;751;-62
2023/05/23 08:16:38;;;;;;;;;;;;;;;;;;7367757;19;1144;-62
2023/05/23 08:19:14;;;;;;;;;;;;;;;;;;7366395;19;724;-61
2023/05/23 08:21:42;;;;;;;;;;;;;;;;;;7367456;19;720;-62
2023/05/23 08:24:11;;;;;;;;;;;;;;;;;;7368558;19;881;-63
2023/05/23 08:26:40;;;;;;;;;;;;;;;;;;7366379;19;1838;-61
2023/05/23 08:29:11;;;;;;;;;;;;;;;;;;7366164;19;813;-63
2023/05/23 08:31:39;;;;;;;;;;;;;;;;;;7365167;19;836;-64
2023/05/23 08:34:08;;;;;;;;;;;;;;;;;;7366357;19;812;-58
2023/05/23 08:36:38;;;;;;;;;;;;;;;;;;7366509;19;766;-60
2023/05/23 08:39:08;;;;;;;;;;;;;;;;;;7361872;19;1341;-61
2023/05/23 08:41:42;;;;;;;;;;;;;;;;;;7366080;19;708;-63
2023/05/23 08:44:13;;;;;;;;;;;;;;;;;;7365877;19;777;-63
2023/05/23 08:46:48;;;;;;;;;;;;;;;;;;7365016;19;1846;-60
2023/05/23 08:49:27;;;;;;;;;;;;;;;;;;7364650;19;954;-59
2023/05/23 08:51:55;;;;;;;;;;;;;;;;;;7364955;19;759;-61
2023/05/23 08:54:23;;;;;;;;;;;;;;;;;;7365288;19;936;-58
2023/05/23 08:56:51;;;;;;;;;;;;;;;;;;7365254;19;1242;-60
2023/05/23 08:59:20;;;;;;;;;;;;;;;;;;7365908;19;845;-58
2023/05/23 09:01:48;;;;;;;;;;;;;;;;;;7364481;19;791;-59
2023/05/23 09:04:17;;;;;;;;;;;;;;;;;;7364559;19;773;-54
2023/05/23 09:06:58;;;;;;;;;;;;;;;;;;7363747;19;1845;-58
2023/05/23 09:09:26;;;;;;;;;;;;;;;;;;7363538;19;771;-55
2023/05/23 09:11:54;;;;;;;;;;;;;;;;;;7364108;19;802;-58
2023/05/23 09:14:22;;;;;;;;;;;;;;;;;;7364432;19;791;-58
2023/05/23 09:16:53;;;;;;;;;;;;;;;;;;7364057;19;1368;-62
2023/05/23 09:19:24;;;;;;;;;;;;;;;;;;7363787;19;773;-57
2023/05/23 09:21:58;;;;;;;;;;;;;;;;;;7365015;19;764;-58
2023/05/23 09:24:28;;;;;;;;;;;;;;;;;;7363880;19;792;-61
2023/05/23 09:26:57;;;;;;;;;;;;;;;;;;7362225;19;1845;-61
2023/05/23 09:29:25;;;;;;;;;;;;;;;;;;7361658;19;836;-58
2023/05/23 09:31:53;;;;;;;;;;;;;;;;;;7364368;19;873;-62
2023/05/23 09:34:21;;;;;;;;;;;;;;;;;;7363361;19;774;-63
2023/05/23 09:36:50;;;;;;;;;;;;;;;;;;7364241;19;1340;-62
2023/05/23 09:39:18;;;;;;;;;;;;;;;;;;7362520;19;853;-63
2023/05/23 09:41:46;;;;;;;;;;;;;;;;;;7363220;19;907;-62
2023/05/23 09:44:15;;;;;;;;;;;;;;;;;;7363260;19;881;-63
2023/05/23 09:46:44;;;;;;;;;;;;;;;;;;7362692;19;1842;-63
2023/05/23 09:49:12;;;;;;;;;;;;;;;;;;7362206;19;796;-61
2023/05/23 09:51:40;;;;;;;;;;;;;;;;;;7364093;19;924;-62
2023/05/23 09:54:08;;;;;;;;;;;;;;;;;;7363837;19;771;-61
2023/05/23 09:56:37;;;;;;;;;;;;;;;;;;7363666;19;782;-61
2023/05/23 09:59:07;;;;;;;;;;;;;;;;;;7360825;19;1270;-61
2023/05/23 10:01:35;;;;;;;;;;;;;;;;;;7364610;19;766;-62
2023/05/23 10:04:03;;;;;;;;;;;;;;;;;;7363323;19;892;-62
2023/05/23 10:06:31;;;;;;;;;;;;;;;;;;7364316;19;1863;-60
2023/05/23 10:08:59;;;;;;;;;;;;;;;;;;7360102;19;1297;-58
2023/05/23 10:11:28;;;;;;;;;;;;;;;;;;7363155;19;849;-60
2023/05/23 10:13:56;;;;;;;;;;;;;;;;;;7363468;19;798;-58
2023/05/23 10:16:24;;;;;;;;;;;;;;;;;;7363335;19;817;-62
2023/05/23 10:18:52;;;;;;;;;;;;;;;;;;7360556;19;1285;-58
2023/05/23 10:21:20;;;;;;;;;;;;;;;;;;7369948;19;845;-60
2023/05/23 10:23:48;;;;;;;;;;;;;;;;;;7370530;19;889;-60
2023/05/23 10:26:17;;;;;;;;;;;;;;;;;;7370369;19;762;-62
2023/05/23 10:28:45;;;;;;;;;;;;;;;;;;7367315;19;1861;-61
2023/05/23 10:31:13;;;;;;;;;;;;;;;;;;7370355;19;833;-61
2023/05/23 10:33:41;;;;;;;;;;;;;;;;;;7370355;19;823;-60
2023/05/23 10:36:09;;;;;;;;;;;;;;;;;;7370466;19;846;-62
2023/05/23 10:38:37;;;;;;;;;;;;;;;;;;7366493;19;1407;-62
2023/05/23 10:41:05;;;;;;;;;;;;;;;;;;7369167;19;873;-62
2023/05/23 10:43:33;;;;;;;;;;;;;;;;;;7369008;19;763;-61
2023/05/23 10:46:02;;;;;;;;;;;;;;;;;;7370186;19;821;-61
2023/05/23 10:48:30;;;;;;;;;;;;;;;;;;7366623;19;1849;-60
2023/05/23 10:50:58;;;;;;;;;;;;;;;;;;7369634;19;841;-62
2023/05/23 10:53:26;;;;;;;;;;;;;;;;;;7369685;19;808;-61
2023/05/23 10:55:54;;;;;;;;;;;;;;;;;;7370247;19;802;-64
2023/05/23 10:58:22;;;;;;;;;;;;;;;;;;7366714;19;1342;-61
2023/05/23 11:00:50;;;;;;;;;;;;;;;;;;7369972;19;810;-61
2023/05/23 11:03:18;;;;;;;;;;;;;;;;;;7368780;19;881;-58
2023/05/23 11:05:47;;;;;;;;;;;;;;;;;;7368922;19;821;-59
2023/05/23 11:08:16;;;;;;;;;;;;;;;;;;7367468;19;1850;-62
2023/05/23 11:10:44;;;;;;;;;;;;;;;;;;7369292;19;877;-62
2023/05/23 11:13:12;;;;;;;;;;;;;;;;;;7369047;19;845;-58
2023/05/23 11:15:41;;;;;;;;;;;;;;;;;;7369027;19;826;-61
2023/05/23 11:18:10;;;;;;;;;;;;;;;;;;7366331;19;1356;-58
2023/05/23 11:20:38;;;;;;;;;;;;;;;;;;7368360;19;797;-61
2023/05/23 11:23:06;;;;;;;;;;;;;;;;;;7368976;19;897;-62
2023/05/23 11:25:35;;;;;;;;;;;;;;;;;;7368810;19;909;-62
2023/05/23 11:28:03;;;;;;;;;;;;;;;;;;7366287;19;1863;-61
2023/05/23 11:30:31;;;;;;;;;;;;;;;;;;7369196;19;773;-62
2023/05/23 11:33:00;;;;;;;;;;;;;;;;;;7368015;19;779;-60
2023/05/23 11:35:28;;;;;;;;;;;;;;;;;;7368397;19;806;-62
2023/05/23 11:37:56;;;;;;;;;;;;;;;;;;7367205;19;1320;-61
2023/05/23 11:40:24;;;;;;;;;;;;;;;;;;7368731;19;831;-61
2023/05/23 11:42:52;;;;;;;;;;;;;;;;;;7368645;19;807;-63
2023/05/23 11:45:20;;;;;;;;;;;;;;;;;;7368985;19;886;-58
2023/05/23 11:47:48;;;;;;;;;;;;;;;;;;7366180;19;1875;-60
2023/05/23 11:50:17;;;;;;;;;;;;;;;;;;7367347;19;811;-61
2023/05/23 11:52:50;;;;;;;;;;;;;;;;;;7367050;19;831;-61
2023/05/23 11:55:18;;;;;;;;;;;;;;;;;;7368680;19;828;-62
2023/05/23 11:57:46;;;;;;;;;;;;;;;;;;7365709;19;1255;-60
2023/05/23 12:00:14;;;;;;;;;;;;;;;;;;7367530;19;802;-62
2023/05/23 12:02:42;;;;;;;;;;;;;;;;;;7368097;19;799;-62
2023/05/23 12:05:10;;;;;;;;;;;;;;;;;;7368798;19;863;-62
2023/05/23 12:07:39;;;;;;;;;;;;;;;;;;7366889;19;1865;-63
2023/05/23 12:10:07;;;;;;;;;;;;;;;;;;7367460;19;862;-60
2023/05/23 12:12:35;;;;;;;;;;;;;;;;;;7367408;19;759;-61
2023/05/23 12:15:03;;;;;;;;;;;;;;;;;;7367221;19;982;-62
2023/05/23 12:17:31;;;;;;;;;;;;;;;;;;7365769;19;1281;-64
2023/05/23 12:20:00;;;;;;;;;;;;;;;;;;7366770;19;819;-64
2023/05/23 12:22:28;;;;;;;;;;;;;;;;;;7367021;19;813;-62
2023/05/23 12:24:56;;;;;;;;;;;;;;;;;;7367894;19;804;-63
2023/05/23 12:27:24;;;;;;;;;;;;;;;;;;7364793;19;1838;-63
2023/05/23 12:29:53;;;;;;;;;;;;;;;;;;7366255;19;812;-63
2023/05/23 12:32:21;;;;;;;;;;;;;;;;;;7365713;19;895;-62
2023/05/23 12:34:49;;;;;;;;;;;;;;;;;;7366682;19;866;-59
2023/05/23 12:37:17;;;;;;;;;;;;;;;;;;7366786;19;1279;-56
2023/05/23 12:39:46;;;;;;;;;;;;;;;;;;7366684;19;837;-59
2023/05/23 12:42:14;;;;;;;;;;;;;;;;;;7364672;19;815;-62
2023/05/23 12:44:42;;;;;;;;;;;;;;;;;;7366678;19;887;-59
2023/05/23 12:47:10;;;;;;;;;;;;;;;;;;7365560;19;1357;-59
2023/05/23 12:49:38;;;;;;;;;;;;;;;;;;7362942;19;2161;-58
2023/05/23 12:52:06;;;;;;;;;;;;;;;;;;7365976;19;819;-57
2023/05/23 12:54:34;;;;;;;;;;;;;;;;;;7366550;19;818;-60
2023/05/23 12:57:02;;;;;;;;;;;;;;;;;;7366038;19;1306;-60
2023/05/23 12:59:31;;;;;;;;;;;;;;;;;;7365385;19;795;-65
2023/05/23 13:02:00;;;;;;;;;;;;;;;;;;7365724;19;877;-60
2023/05/23 13:04:28;;;;;;;;;;;;;;;;;;7366764;19;809;-59
2023/05/23 13:06:56;;;;;;;;;;;;;;;;;;7366610;19;1262;-58
2023/05/23 13:09:24;;;;;;;;;;;;;;;;;;7363207;19;1851;-55
2023/05/23 13:11:53;;;;;;;;;;;;;;;;;;7366065;19;806;-59
2023/05/23 13:14:21;;;;;;;;;;;;;;;;;;7366104;19;856;-60
2023/05/23 13:16:49;;;;;;;;;;;;;;;;;;7365105;19;1328;-61
2023/05/23 13:19:17;;;;;;;;;;;;;;;;;;7364685;19;801;-62
2023/05/23 13:21:45;;;;;;;;;;;;;;;;;;7364792;19;831;-60
2023/05/23 13:24:13;;;;;;;;;;;;;;;;;;7365210;19;877;-62
2023/05/23 13:26:41;;;;;;;;;;;;;;;;;;7365436;19;819;-62
2023/05/23 13:29:09;;;;;;;;;;;;;;;;;;7360671;19;1880;-64
2023/05/23 13:31:38;;;;;;;;;;;;;;;;;;7364866;19;838;-64
2023/05/23 13:34:06;;;;;;;;;;;;;;;;;;7364535;19;810;-63
2023/05/23 13:36:34;;;;;;;;;;;;;;;;;;7365030;19;814;-62
2023/05/23 13:39:02;;;;;;;;;;;;;;;;;;7361074;19;1314;-63
2023/05/23 13:41:31;;;;;;;;;;;;;;;;;;7365211;19;782;-63
2023/05/23 13:43:59;;;;;;;;;;;;;;;;;;7365057;19;760;-62
2023/05/23 13:46:27;;;;;;;;;;;;;;;;;;7365213;19;795;-63
2023/05/23 13:48:55;;;;;;;;;;;;;;;;;;7360375;19;1958;-63
2023/05/23 13:51:23;;;;;;;;;;;;;;;;;;7364358;19;856;-62
2023/05/23 13:53:51;;;;;;;;;;;;;;;;;;7363460;19;826;-61
2023/05/23 13:56:19;;;;;;;;;;;;;;;;;;7363450;19;886;-61
2023/05/23 13:58:48;;;;;;;;;;;;;;;;;;7361343;19;1285;-61
2023/05/23 14:01:16;;;;;;;;;;;;;;;;;;7363382;19;826;-63
2023/05/23 14:03:44;;;;;;;;;;;;;;;;;;7364775;19;820;-60
2023/05/23 14:06:12;;;;;;;;;;;;;;;;;;7364061;19;806;-60
2023/05/23 14:08:40;;;;;;;;;;;;;;;;;;7360965;19;1838;-61
2023/05/23 14:11:08;;;;;;;;;;;;;;;;;;7361872;19;839;-61
2023/05/23 14:13:36;;;;;;;;;;;;;;;;;;7363435;19;842;-63
2023/05/23 14:16:05;;;;;;;;;;;;;;;;;;7363751;19;961;-61
2023/05/23 14:18:33;;;;;;;;;;;;;;;;;;7360568;19;1333;-62
2023/05/23 14:21:01;;;;;;;;;;;;;;;;;;7363483;19;818;-63
2023/05/23 14:23:29;;;;;;;;;;;;;;;;;;7363512;19;807;-62
2023/05/23 14:25:57;;;;;;;;;;;;;;;;;;7363034;19;874;-62
2023/05/23 14:28:26;;;;;;;;;;;;;;;;;;7359684;19;1857;-62
2023/05/23 14:30:54;;;;;;;;;;;;;;;;;;7362097;19;826;-59
2023/05/23 14:33:22;;;;;;;;;;;;;;;;;;7363218;19;807;-61
2023/05/23 14:35:50;;;;;;;;;;;;;;;;;;7362798;19;827;-60
2023/05/23 14:38:19;;;;;;;;;;;;;;;;;;7360560;19;1321;-63
2023/05/23 14:40:47;;;;;;;;;;;;;;;;;;7363699;19;767;-60
2023/05/23 14:43:15;;;;;;;;;;;;;;;;;;7362902;19;872;-62
2023/05/23 14:45:43;;;;;;;;;;;;;;;;;;7362823;19;823;-64
2023/05/23 14:48:12;;;;;;;;;;;;;;;;;;7359418;19;1861;-61
2023/05/23 14:50:41;;;;;;;;;;;;;;;;;;7362040;19;794;-61
2023/05/23 14:53:09;;;;;;;;;;;;;;;;;;7363770;19;874;-62
2023/05/23 14:55:37;;;;;;;;;;;;;;;;;;7363011;19;775;-60
2023/05/23 14:58:05;;;;;;;;;;;;;;;;;;7360231;19;1285;-62
2023/05/23 15:00:34;;;;;;;;;;;;;;;;;;7363584;19;823;-62
2023/05/23 15:03:02;;;;;;;;;;;;;;;;;;7362878;19;803;-60
2023/05/23 15:05:30;;;;;;;;;;;;;;;;;;7362989;19;816;-62
2023/05/23 15:07:58;;;;;;;;;;;;;;;;;;7367434;19;1859;-62
2023/05/23 15:10:26;;;;;;;;;;;;;;;;;;7369264;19;838;-62
2023/05/23 15:12:54;;;;;;;;;;;;;;;;;;7369511;19;861;-62
2023/05/23 15:15:23;;;;;;;;;;;;;;;;;;7369354;19;843;-61
2023/05/23 15:17:51;;;;;;;;;;;;;;;;;;7367142;19;1357;-60
2023/05/23 15:20:19;;;;;;;;;;;;;;;;;;7368537;19;768;-62
2023/05/23 15:22:47;;;;;;;;;;;;;;;;;;7368478;19;814;-60
2023/05/23 15:25:15;;;;;;;;;;;;;;;;;;7368360;19;821;-59
2023/05/23 15:27:44;;;;;;;;;;;;;;;;;;7366410;19;1290;-62
2023/05/23 15:30:12;;;;;;;;;;;;;;;;;;7365573;19;1842;-60
2023/05/23 15:32:40;;;;;;;;;;;;;;;;;;7367657;19;768;-60
2023/05/23 15:35:08;;;;;;;;;;;;;;;;;;7368498;19;861;-61
2023/05/23 15:37:36;;;;;;;;;;;;;;;;;;7366890;19;1341;-61
2023/05/23 15:40:05;;;;;;;;;;;;;;;;;;7367818;19;790;-62
2023/05/23 15:42:33;;;;;;;;;;;;;;;;;;7367495;19;848;-61
2023/05/23 15:45:01;;;;;;;;;;;;;;;;;;7367227;19;830;-61
2023/05/23 15:47:29;;;;;;;;;;;;;;;;;;7366311;19;1239;-62
2023/05/23 15:49:57;;;;;;;;;;;;;;;;;;7364635;19;1841;-60
2023/05/23 15:52:25;;;;;;;;;;;;;;;;;;7367275;19;872;-60
2023/05/23 15:54:54;;;;;;;;;;;;;;;;;;7367255;19;869;-59
2023/05/23 15:57:22;;;;;;;;;;;;;;;;;;7365091;19;1298;-62
2023/05/23 15:59:50;;;;;;;;;;;;;;;;;;7365937;19;818;-62
2023/05/23 16:02:18;;;;;;;;;;;;;;;;;;7366341;19;786;-62
2023/05/23 16:04:46;;;;;;;;;;;;;;;;;;7366287;19;886;-62
2023/05/23 16:07:15;;;;;;;;;;;;;;;;;;7366453;19;1361;-62
2023/05/23 16:09:43;;;;;;;;;;;;;;;;;;7364711;19;1854;-62
2023/05/23 16:12:11;;;;;;;;;;;;;;;;;;7366767;19;719;-60
2023/05/23 16:14:39;;;;;;;;;;;;;;;;;;7366836;19;873;-61
2023/05/23 16:17:08;;;;;;;;;;;;;;;;;;7364428;19;1356;-62
2023/05/23 16:19:36;;;;;;;;;;;;;;;;;;7365665;19;893;-60
2023/05/23 16:22:04;;;;;;;;;;;;;;;;;;7366409;19;787;-61
2023/05/23 16:24:32;;;;;;;;;;;;;;;;;;7366860;19;802;-60
2023/05/23 16:27:01;;;;;;;;;;;;;;;;;;7365642;19;1352;-60
2023/05/23 16:29:29;;;;;;;;;;;;;;;;;;7364455;19;1846;-62
2023/05/23 16:31:57;;;;;;;;;;;;;;;;;;7366796;19;833;-62
2023/05/23 16:34:25;;;;;;;;;;;;;;;;;;7366384;19;772;-59
2023/05/23 16:36:53;;;;;;;;;;;;;;;;;;7366547;19;1302;-60
2023/05/23 16:39:21;;;;;;;;;;;;;;;;;;7366331;19;815;-59
2023/05/23 16:41:49;;;;;;;;;;;;;;;;;;7366203;19;823;-59
2023/05/23 16:44:17;;;;;;;;;;;;;;;;;;7366592;19;802;-59
2023/05/23 16:46:46;;;;;;;;;;;;;;;;;;7366455;19;792;-56
2023/05/23 16:49:14;;;;;;;;;;;;;;;;;;7365989;19;1825;-60
2023/05/23 16:51:42;;;;;;;;;;;;;;;;;;7369486;19;751;-58
2023/05/23 16:54:10;;;;;;;;;;;;;;;;;;7367174;19;812;-58
2023/05/23 16:56:38;;;;;;;;;;;;;;;;;;7367278;19;837;-61
2023/05/23 16:59:07;;;;;;;;;;;;;;;;;;7362756;19;1291;-59
2023/05/23 17:01:35;;;;;;;;;;;;;;;;;;7366162;19;810;-63
2023/05/23 17:04:03;;;;;;;;;;;;;;;;;;7365887;19;811;-61
2023/05/23 17:06:32;;;;;;;;;;;;;;;;;;7366044;19;781;-62
2023/05/23 17:09:00;;;;;;;;;;;;;;;;;;7362576;19;1853;-63
2023/05/23 17:11:28;;;;;;;;;;;;;;;;;;7365414;19;808;-63
2023/05/23 17:13:56;;;;;;;;;;;;;;;;;;7365556;19;892;-63
2023/05/23 17:16:31;;;;;;;;;;;;;;;;;;7362810;19;1032;-63
2023/05/23 17:18:59;;;;;;;;;;;;;;;;;;7362528;19;1330;-61
2023/05/23 17:21:28;;;;;;;;;;;;;;;;;;7364643;19;778;-63
2023/05/23 17:23:56;;;;;;;;;;;;;;;;;;7365531;19;814;-63